PWSweather.com
Personal Weather Stations
Station Observations
KMAMEDFI2
Medfield, MA 02052

Medfield, MA 02052

Lat: 42.1900822, Lon: -71.3296889

Elevation: 138

Station Type: Rainwise WS MK-III

http://www.medfieldweather.com

Latest ConditionsUpdated 2:30:00 PM EDT Monday, Aug 20, 2018
Currently Today's Max Today's Min Today's Average
Temperature 75.8°F24.3°C 75.8°F24.3°C 63.3°F17.4°C 66.9°F19.4°C
Dew Point 64.5°F18.1°C 66.7°F19.3°C 61.5°F16.4°C 63.5°F17.5°C
Winds 3.5 mph SE5.6 kmh SE 6.9 mph -11.1 kmh - - 2.3 mph 3.7 kmh
Wind Gusts 8.1 mph13.0 kmh 10.4 mph16.7 kmh - -
Humidity 68% 99% 63% 90%
Pressure 30.15 in1021.0 mb 30.16 in1021.3 mb 30.06 in1017.9 mb -
Precipitation - 0.03 in0.8 mm - -
Hour Temp Dew Point Humidity Winds Wind Gusts Pressure Precip Precip Rate Daily Precip Total
02:30 PM 75.8°F24.3°C 64.5°F18.1°C 68% 3.5 mph SE5.6 kmh SE 8.1 mph13.0 kmh 30.15 in1021.0 mb - 0.00 in0.0 mm 0.03 in0.8 mm
02:20 PM 75.3°F24.1°C 61.8°F16.6°C 63% 4.6 mph S7.4 kmh S 10.4 mph16.7 kmh 30.16 in1021.3 mb - 0.00 in0.0 mm 0.03 in0.8 mm
02:10 PM 74.7°F23.7°C 62.6°F17.0°C 66% 4.6 mph SE7.4 kmh SE 6.9 mph11.1 kmh 30.16 in1021.3 mb - 0.00 in0.0 mm 0.03 in0.8 mm
02:00 PM 74.9°F23.8°C 63.6°F17.6°C 68% 4.6 mph ESE7.4 kmh ESE 5.8 mph9.3 kmh 30.15 in1021.0 mb - 0.00 in0.0 mm 0.03 in0.8 mm
01:50 PM 75.2°F24.0°C 63.5°F17.5°C 67% 3.5 mph E5.6 kmh E 2.3 mph3.7 kmh 30.15 in1021.0 mb - 0.00 in0.0 mm 0.03 in0.8 mm
01:40 PM 74.8°F23.8°C 61.8°F16.6°C 64% 6.9 mph WNW11.1 kmh WNW 5.8 mph9.3 kmh 30.15 in1021.0 mb - 0.00 in0.0 mm 0.03 in0.8 mm
01:30 PM 74.6°F23.7°C 62.1°F16.7°C 65% 3.5 mph SE5.6 kmh SE 8.1 mph13.0 kmh 30.15 in1021.0 mb - 0.00 in0.0 mm 0.03 in0.8 mm
01:20 PM 74.2°F23.4°C 63.8°F17.7°C 70% 3.5 mph E5.6 kmh E 4.6 mph7.4 kmh 30.15 in1021.0 mb - 0.00 in0.0 mm 0.03 in0.8 mm
01:10 PM 73.9°F23.3°C 62.7°F17.1°C 68% 4.6 mph S7.4 kmh S 5.8 mph9.3 kmh 30.16 in1021.3 mb - 0.00 in0.0 mm 0.03 in0.8 mm
01:00 PM 74.0°F23.3°C 62.8°F17.1°C 68% 4.6 mph E7.4 kmh E 6.9 mph11.1 kmh 30.16 in1021.3 mb - 0.00 in0.0 mm 0.03 in0.8 mm
12:50 PM 74.1°F23.4°C 62.9°F17.2°C 68% 4.6 mph E7.4 kmh E 9.2 mph14.8 kmh 30.16 in1021.3 mb - 0.00 in0.0 mm 0.03 in0.8 mm
12:40 PM 73.9°F23.3°C 63.5°F17.5°C 70% 3.5 mph ESE5.6 kmh ESE 8.1 mph13.0 kmh 30.16 in1021.3 mb - 0.00 in0.0 mm 0.03 in0.8 mm
12:30 PM 73.5°F23.1°C 61.5°F16.4°C 66% 3.5 mph SE5.6 kmh SE 8.1 mph13.0 kmh 30.16 in1021.3 mb - 0.00 in0.0 mm 0.03 in0.8 mm
12:20 PM 73.4°F23.0°C 62.6°F17.0°C 69% 6.9 mph E11.1 kmh E 5.8 mph9.3 kmh 30.16 in1021.3 mb - 0.00 in0.0 mm 0.03 in0.8 mm
12:10 PM 73.6°F23.1°C 62.8°F17.1°C 69% 3.5 mph E5.6 kmh E 8.1 mph13.0 kmh 30.16 in1021.3 mb - 0.00 in0.0 mm 0.03 in0.8 mm
12:00 PM 73.3°F22.9°C 62.9°F17.2°C 70% 5.8 mph NNW9.3 kmh NNW 9.2 mph14.8 kmh 30.16 in1021.3 mb - 0.00 in0.0 mm 0.03 in0.8 mm
11:50 AM 72.7°F22.6°C 62.3°F16.8°C 70% 4.6 mph SE7.4 kmh SE 5.8 mph9.3 kmh 30.16 in1021.3 mb - 0.00 in0.0 mm 0.03 in0.8 mm
11:40 AM 72.8°F22.7°C 64.8°F18.2°C 76% 2.3 mph SSE3.7 kmh SSE 4.6 mph7.4 kmh 30.16 in1021.3 mb - 0.00 in0.0 mm 0.03 in0.8 mm
11:30 AM 72.5°F22.5°C 64.5°F18.1°C 76% 3.5 mph NNW5.6 kmh NNW 6.9 mph11.1 kmh 30.16 in1021.3 mb - 0.00 in0.0 mm 0.03 in0.8 mm
11:20 AM 72.7°F22.6°C 63.1°F17.3°C 72% 2.3 mph SE3.7 kmh SE 9.2 mph14.8 kmh 30.16 in1021.3 mb - 0.00 in0.0 mm 0.03 in0.8 mm
11:10 AM 72.9°F22.7°C 66.4°F19.1°C 80% 3.5 mph E5.6 kmh E 5.8 mph9.3 kmh 30.16 in1021.3 mb - 0.00 in0.0 mm 0.03 in0.8 mm
11:00 AM 72.6°F22.6°C 66.0°F18.9°C 80% 4.6 mph S7.4 kmh S 5.8 mph9.3 kmh 30.16 in1021.3 mb - 0.00 in0.0 mm 0.03 in0.8 mm
10:50 AM 71.7°F22.1°C 66.6°F19.2°C 84% 4.6 mph ESE7.4 kmh ESE 5.8 mph9.3 kmh 30.16 in1021.3 mb - 0.00 in0.0 mm 0.03 in0.8 mm
10:40 AM 70.5°F21.4°C 66.1°F18.9°C 86% 3.5 mph NW5.6 kmh NW 5.8 mph9.3 kmh 30.16 in1021.3 mb - 0.00 in0.0 mm 0.03 in0.8 mm
10:30 AM 69.7°F20.9°C 65.6°F18.7°C 87% 2.3 mph SSE3.7 kmh SSE 2.3 mph3.7 kmh 30.16 in1021.3 mb - 0.00 in0.0 mm 0.03 in0.8 mm
10:20 AM 68.9°F20.5°C 65.5°F18.6°C 89% 2.3 mph SSE3.7 kmh SSE 2.3 mph3.7 kmh 30.16 in1021.3 mb - 0.01 in0.3 mm 0.03 in0.8 mm
10:10 AM 68.5°F20.3°C 65.8°F18.8°C 91% 4.6 mph SE7.4 kmh SE 6.9 mph11.1 kmh 30.16 in1021.3 mb - 0.00 in0.0 mm 0.02 in0.5 mm
10:00 AM 68.5°F20.3°C 66.4°F19.1°C 93% 3.5 mph E5.6 kmh E 6.9 mph11.1 kmh 30.16 in1021.3 mb - 0.00 in0.0 mm 0.02 in0.5 mm
09:50 AM 68.1°F20.1°C 66.3°F19.1°C 94% 2.3 mph SE3.7 kmh SE 2.3 mph3.7 kmh 30.16 in1021.3 mb - 0.00 in0.0 mm 0.02 in0.5 mm
09:40 AM 67.7°F19.8°C 66.2°F19.0°C 95% 3.5 mph ESE5.6 kmh ESE 5.8 mph9.3 kmh 30.16 in1021.3 mb - 0.00 in0.0 mm 0.02 in0.5 mm
09:30 AM 67.6°F19.8°C 66.7°F19.3°C 97% 3.5 mph E5.6 kmh E 2.3 mph3.7 kmh 30.16 in1021.3 mb - 0.00 in0.0 mm 0.02 in0.5 mm
09:20 AM 67.3°F19.6°C 66.7°F19.3°C 98% 3.5 mph SE5.6 kmh SE 2.3 mph3.7 kmh 30.14 in1020.7 mb - 0.00 in0.0 mm 0.02 in0.5 mm
09:10 AM 66.8°F19.3°C 66.6°F19.2°C 99% 2.3 mph SE3.7 kmh SE 2.3 mph3.7 kmh 30.14 in1020.7 mb - 0.00 in0.0 mm 0.02 in0.5 mm
09:00 AM 65.9°F18.8°C 65.4°F18.6°C 98% 1.2 mph WNW1.9 kmh WNW 5.8 mph9.3 kmh 30.14 in1020.7 mb - 0.00 in0.0 mm 0.02 in0.5 mm
08:50 AM 65.4°F18.6°C 64.9°F18.3°C 98% 2.3 mph SE3.7 kmh SE 2.3 mph3.7 kmh 30.14 in1020.7 mb - 0.00 in0.0 mm 0.02 in0.5 mm
08:40 AM 65.2°F18.4°C 64.7°F18.2°C 98% 2.3 mph SSW3.7 kmh SSW 4.6 mph7.4 kmh 30.13 in1020.3 mb - 0.00 in0.0 mm 0.02 in0.5 mm
08:30 AM 64.7°F18.2°C 64.1°F17.8°C 98% 2.3 mph NE3.7 kmh NE 2.3 mph3.7 kmh 30.13 in1020.3 mb - 0.00 in0.0 mm 0.02 in0.5 mm
08:20 AM 64.1°F17.8°C 63.5°F17.5°C 98% 2.3 mph NW3.7 kmh NW 2.3 mph3.7 kmh 30.13 in1020.3 mb - 0.00 in0.0 mm 0.02 in0.5 mm
08:10 AM 63.9°F17.7°C 63.3°F17.4°C 98% 3.5 mph SE5.6 kmh SE 6.9 mph11.1 kmh 30.13 in1020.3 mb - 0.00 in0.0 mm 0.02 in0.5 mm
08:00 AM 63.6°F17.6°C 63.0°F17.2°C 98% 2.3 mph W3.7 kmh W 2.3 mph3.7 kmh 30.13 in1020.3 mb - 0.00 in0.0 mm 0.02 in0.5 mm
07:50 AM 63.5°F17.5°C 63.0°F17.2°C 98% 2.3 mph ESE3.7 kmh ESE 2.3 mph3.7 kmh 30.13 in1020.3 mb - 0.00 in0.0 mm 0.02 in0.5 mm
07:40 AM 63.5°F17.5°C 62.9°F17.2°C 98% 2.3 mph WNW3.7 kmh WNW 5.8 mph9.3 kmh 30.13 in1020.3 mb - 0.00 in0.0 mm 0.02 in0.5 mm
07:30 AM 63.5°F17.5°C 62.9°F17.2°C 98% 1.2 mph E1.9 kmh E 5.8 mph9.3 kmh 30.12 in1020.0 mb - 0.00 in0.0 mm 0.02 in0.5 mm
07:20 AM 63.4°F17.4°C 62.8°F17.1°C 98% 3.5 mph SE5.6 kmh SE 5.8 mph9.3 kmh 30.12 in1020.0 mb - 0.00 in0.0 mm 0.02 in0.5 mm
07:10 AM 63.3°F17.4°C 62.7°F17.1°C 98% Calm Calm 1.2 mph1.9 kmh 30.11 in1019.6 mb - 0.00 in0.0 mm 0.02 in0.5 mm
07:00 AM 63.3°F17.4°C 62.7°F17.1°C 98% 1.2 mph SW1.9 kmh SW 2.3 mph3.7 kmh 30.11 in1019.6 mb - 0.00 in0.0 mm 0.02 in0.5 mm
06:50 AM 63.3°F17.4°C 62.7°F17.1°C 98% Calm Calm 1.2 mph1.9 kmh 30.11 in1019.6 mb - 0.00 in0.0 mm 0.02 in0.5 mm
06:40 AM 63.3°F17.4°C 62.7°F17.1°C 98% 1.2 mph S1.9 kmh S 2.3 mph3.7 kmh 30.11 in1019.6 mb - 0.00 in0.0 mm 0.02 in0.5 mm
06:30 AM 63.3°F17.4°C 62.7°F17.1°C 98% 1.2 mph SE1.9 kmh SE 1.2 mph1.9 kmh 30.10 in1019.3 mb - 0.00 in0.0 mm 0.02 in0.5 mm
06:20 AM 63.3°F17.4°C 62.7°F17.1°C 98% 1.2 mph SE1.9 kmh SE 2.3 mph3.7 kmh 30.10 in1019.3 mb - 0.00 in0.0 mm 0.02 in0.5 mm
06:10 AM 63.3°F17.4°C 62.7°F17.1°C 98% Calm Calm -- 30.10 in1019.3 mb - 0.00 in0.0 mm 0.02 in0.5 mm
06:00 AM 63.3°F17.4°C 62.7°F17.1°C 98% Calm Calm -- 30.09 in1019.0 mb - 0.00 in0.0 mm 0.02 in0.5 mm
05:50 AM 63.4°F17.4°C 62.8°F17.1°C 98% Calm Calm 1.2 mph1.9 kmh 30.09 in1019.0 mb - 0.00 in0.0 mm 0.02 in0.5 mm
05:40 AM 63.4°F17.4°C 62.9°F17.2°C 98% 1.2 mph E1.9 kmh E -- 30.08 in1018.6 mb - 0.00 in0.0 mm 0.02 in0.5 mm
05:30 AM 63.6°F17.6°C 63.0°F17.2°C 98% Calm Calm 2.3 mph3.7 kmh 30.08 in1018.6 mb - 0.00 in0.0 mm 0.02 in0.5 mm
05:20 AM 63.6°F17.6°C 63.0°F17.2°C 98% 1.2 mph SE1.9 kmh SE 2.3 mph3.7 kmh 30.07 in1018.3 mb - 0.00 in0.0 mm 0.02 in0.5 mm
05:10 AM 63.6°F17.6°C 63.0°F17.2°C 98% 1.2 mph SW1.9 kmh SW -- 30.07 in1018.3 mb - 0.00 in0.0 mm 0.02 in0.5 mm
05:00 AM 63.5°F17.5°C 62.9°F17.2°C 98% 1.2 mph WNW1.9 kmh WNW 4.6 mph7.4 kmh 30.07 in1018.3 mb - 0.00 in0.0 mm 0.02 in0.5 mm
04:50 AM 63.4°F17.4°C 62.8°F17.1°C 98% 2.3 mph ESE3.7 kmh ESE 2.3 mph3.7 kmh 30.06 in1017.9 mb - 0.00 in0.0 mm 0.02 in0.5 mm
04:40 AM 63.4°F17.4°C 62.9°F17.2°C 98% Calm Calm 2.3 mph3.7 kmh 30.07 in1018.3 mb - 0.00 in0.0 mm 0.02 in0.5 mm
04:30 AM 63.4°F17.4°C 62.8°F17.1°C 98% Calm Calm -- 30.08 in1018.6 mb - 0.00 in0.0 mm 0.02 in0.5 mm
04:20 AM 63.4°F17.4°C 62.8°F17.1°C 98% Calm Calm 1.2 mph1.9 kmh 30.08 in1018.6 mb - 0.00 in0.0 mm 0.02 in0.5 mm
04:10 AM 63.4°F17.4°C 62.8°F17.1°C 98% 2.3 mph NE3.7 kmh NE 2.3 mph3.7 kmh 30.08 in1018.6 mb - 0.00 in0.0 mm 0.02 in0.5 mm
04:00 AM 63.5°F17.5°C 63.0°F17.2°C 98% 1.2 mph E1.9 kmh E 2.3 mph3.7 kmh 30.07 in1018.3 mb - 0.00 in0.0 mm 0.02 in0.5 mm
03:50 AM 63.6°F17.6°C 63.0°F17.2°C 98% 1.2 mph SSW1.9 kmh SSW 2.3 mph3.7 kmh 30.07 in1018.3 mb - 0.00 in0.0 mm 0.02 in0.5 mm
03:40 AM 63.6°F17.6°C 63.0°F17.2°C 98% 1.2 mph SE1.9 kmh SE 2.3 mph3.7 kmh 30.07 in1018.3 mb - 0.00 in0.0 mm 0.02 in0.5 mm
03:30 AM 63.6°F17.6°C 63.0°F17.2°C 98% 2.3 mph NNW3.7 kmh NNW 2.3 mph3.7 kmh 30.07 in1018.3 mb - 0.00 in0.0 mm 0.02 in0.5 mm
03:20 AM 63.6°F17.6°C 63.0°F17.2°C 98% 1.2 mph E1.9 kmh E 2.3 mph3.7 kmh 30.07 in1018.3 mb - 0.00 in0.0 mm 0.02 in0.5 mm
03:10 AM 63.6°F17.6°C 63.0°F17.2°C 98% Calm Calm 1.2 mph1.9 kmh 30.07 in1018.3 mb - 0.00 in0.0 mm 0.02 in0.5 mm
03:00 AM 63.7°F17.6°C 63.1°F17.3°C 98% 1.2 mph W1.9 kmh W 2.3 mph3.7 kmh 30.07 in1018.3 mb - 0.00 in0.0 mm 0.02 in0.5 mm
02:50 AM 63.7°F17.6°C 63.1°F17.3°C 98% 2.3 mph W3.7 kmh W 2.3 mph3.7 kmh 30.07 in1018.3 mb - 0.00 in0.0 mm 0.02 in0.5 mm
02:40 AM 63.7°F17.6°C 63.1°F17.3°C 98% Calm Calm -- 30.07 in1018.3 mb - 0.00 in0.0 mm 0.02 in0.5 mm
02:30 AM 63.8°F17.7°C 63.2°F17.3°C 98% 1.2 mph N1.9 kmh N 1.2 mph1.9 kmh 30.07 in1018.3 mb - 0.00 in0.0 mm 0.02 in0.5 mm
02:20 AM 63.8°F17.7°C 63.2°F17.3°C 98% 2.3 mph NW3.7 kmh NW 2.3 mph3.7 kmh 30.07 in1018.3 mb - 0.00 in0.0 mm 0.02 in0.5 mm
02:10 AM 63.7°F17.6°C 63.1°F17.3°C 98% 2.3 mph SE3.7 kmh SE 2.3 mph3.7 kmh 30.07 in1018.3 mb - 0.00 in0.0 mm 0.02 in0.5 mm
02:00 AM 63.7°F17.6°C 63.1°F17.3°C 98% 2.3 mph W3.7 kmh W 2.3 mph3.7 kmh 30.07 in1018.3 mb - 0.00 in0.0 mm 0.02 in0.5 mm
01:50 AM 63.7°F17.6°C 63.1°F17.3°C 98% Calm Calm 2.3 mph3.7 kmh 30.07 in1018.3 mb - 0.00 in0.0 mm 0.02 in0.5 mm
01:40 AM 63.7°F17.6°C 63.1°F17.3°C 98% 2.3 mph ENE3.7 kmh ENE 2.3 mph3.7 kmh 30.07 in1018.3 mb - 0.00 in0.0 mm 0.02 in0.5 mm
01:30 AM 63.6°F17.6°C 63.0°F17.2°C 98% 1.2 mph SSE1.9 kmh SSE 2.3 mph3.7 kmh 30.07 in1018.3 mb - 0.00 in0.0 mm 0.02 in0.5 mm
01:20 AM 63.6°F17.6°C 63.0°F17.2°C 98% 1.2 mph ENE1.9 kmh ENE -- 30.08 in1018.6 mb - 0.00 in0.0 mm 0.02 in0.5 mm
01:10 AM 63.5°F17.5°C 62.9°F17.2°C 98% 1.2 mph W1.9 kmh W 2.3 mph3.7 kmh 30.08 in1018.6 mb - 0.00 in0.0 mm 0.02 in0.5 mm
01:00 AM 63.6°F17.6°C 63.0°F17.2°C 98% 1.2 mph SSE1.9 kmh SSE 2.3 mph3.7 kmh 30.08 in1018.6 mb - 0.00 in0.0 mm 0.02 in0.5 mm
12:50 AM 63.5°F17.5°C 62.9°F17.2°C 98% 2.3 mph SW3.7 kmh SW 2.3 mph3.7 kmh 30.08 in1018.6 mb - 0.00 in0.0 mm 0.02 in0.5 mm
12:40 AM 63.5°F17.5°C 62.9°F17.2°C 98% 1.2 mph NNE1.9 kmh NNE 2.3 mph3.7 kmh 30.07 in1018.3 mb - 0.01 in0.3 mm 0.02 in0.5 mm
12:30 AM 63.6°F17.6°C 63.0°F17.2°C 98% 1.2 mph NW1.9 kmh NW 2.3 mph3.7 kmh 30.08 in1018.6 mb - 0.01 in0.3 mm 0.02 in0.5 mm
12:20 AM 63.6°F17.6°C 63.0°F17.2°C 98% Calm Calm -- 30.07 in1018.3 mb - 0.01 in0.3 mm 0.01 in0.3 mm
12:10 AM 63.7°F17.6°C 63.1°F17.3°C 98% 1.2 mph SSW1.9 kmh SSW 2.3 mph3.7 kmh 30.07 in1018.3 mb - 0.00 in0.0 mm 0.00 in0.0 mm
12:00 AM 63.7°F17.6°C 63.1°F17.3°C 98% 2.3 mph ESE3.7 kmh ESE 2.3 mph3.7 kmh 30.07 in1018.3 mb - 0.00 in0.0 mm 0.00 in0.0 mm